createdAt,value
2018-01-11T08:04:06.514Z,10
2018-01-11T08:04:39.280Z,10
2018-01-11T08:05:11.287Z,15
2018-01-11T08:05:43.307Z,15
2018-01-11T08:06:15.336Z,15
2018-01-11T08:06:47.347Z,15
2018-01-11T08:07:19.361Z,15
2018-01-11T08:07:51.427Z,15
2018-01-11T08:08:23.423Z,15
2018-01-11T08:08:55.478Z,15
2018-01-11T08:09:29.485Z,15
2018-01-11T08:10:01.658Z,15
2018-01-11T08:10:33.731Z,15
2018-01-11T08:11:05.746Z,15
2018-01-11T08:11:37.782Z,15
2018-01-11T08:12:09.795Z,15
2018-01-11T08:12:41.816Z,15
2018-01-11T08:13:13.823Z,15
2018-01-11T08:13:45.829Z,15
2018-01-11T08:14:17.857Z,15
2018-01-11T08:14:49.884Z,15
2018-01-11T08:15:21.924Z,15
2018-01-11T08:15:53.962Z,15
2018-01-11T08:16:25.963Z,15
2018-01-11T08:16:57.921Z,20
2018-01-11T08:17:29.976Z,20
2018-01-11T08:18:02.000Z,20
2018-01-11T08:18:34.008Z,20
2018-01-11T08:19:06.211Z,20
2018-01-11T08:19:38.262Z,20
2018-01-11T08:20:12.447Z,20
2018-01-11T08:20:46.383Z,20
2018-01-11T08:21:18.702Z,20
2018-01-11T08:21:50.688Z,20
2018-01-11T08:22:22.650Z,20
2018-01-11T08:22:54.632Z,20
2018-01-11T08:23:26.632Z,20
2018-01-11T08:23:58.639Z,20
2018-01-11T08:24:30.689Z,20
2018-01-11T08:25:02.707Z,20
2018-01-11T08:25:34.683Z,25
2018-01-11T08:26:06.706Z,25
2018-01-11T08:26:38.740Z,25
2018-01-11T08:27:10.897Z,25
2018-01-11T08:27:42.988Z,25
2018-01-11T08:28:15.031Z,25
2018-01-11T08:28:47.006Z,25
2018-01-11T08:29:19.066Z,25
2018-01-11T08:29:51.063Z,25
2018-01-11T08:30:23.083Z,25
2018-01-11T08:30:55.076Z,25
2018-01-11T08:31:27.093Z,30
2018-01-11T08:31:59.067Z,30
2018-01-11T08:32:31.129Z,30
2018-01-11T08:33:03.129Z,30
2018-01-11T08:33:35.144Z,30
2018-01-11T08:34:07.182Z,30
2018-01-11T08:34:39.182Z,30
2018-01-11T08:35:11.178Z,30
2018-01-11T08:35:43.236Z,30
2018-01-11T08:36:15.281Z,30
2018-01-11T08:36:47.263Z,30
2018-01-11T08:37:19.256Z,30
2018-01-11T08:37:51.268Z,30
2018-01-11T08:38:23.268Z,30
2018-01-11T08:38:55.369Z,35
2018-01-11T08:39:27.407Z,35
2018-01-11T08:39:59.445Z,35
2018-01-11T08:40:31.492Z,35
2018-01-11T08:41:03.504Z,35
2018-01-11T08:41:35.651Z,35
2018-01-11T08:42:07.657Z,35
2018-01-11T08:42:39.701Z,35
2018-01-11T08:43:11.752Z,35
2018-01-11T08:43:43.805Z,35
2018-01-11T08:44:15.828Z,35
2018-01-11T08:44:47.879Z,35
2018-01-11T08:45:19.972Z,35
2018-01-11T08:45:51.992Z,35
2018-01-11T08:46:23.980Z,35
2018-01-11T08:46:56.037Z,40
2018-01-11T08:47:28.910Z,40
2018-01-11T08:48:00.910Z,40
2018-01-11T08:48:32.926Z,40
2018-01-11T08:49:05.123Z,40
2018-01-11T08:49:37.134Z,40
2018-01-11T08:50:09.173Z,40
2018-01-11T08:50:41.183Z,40
2018-01-11T08:51:13.173Z,40
2018-01-11T08:51:45.153Z,40
2018-01-11T08:52:17.146Z,40
2018-01-11T08:52:49.174Z,40
2018-01-11T08:53:21.208Z,40
2018-01-11T08:53:53.237Z,40
2018-01-11T08:54:25.276Z,40
2018-01-11T08:54:57.336Z,40
2018-01-11T08:55:29.349Z,40
2018-01-11T08:56:01.366Z,40
2018-01-11T08:56:33.334Z,45
2018-01-11T08:57:06.240Z,45
2018-01-11T08:57:38.248Z,45
2018-01-11T08:58:10.361Z,45
2018-01-11T08:58:42.354Z,45
2018-01-11T08:59:14.398Z,45
2018-01-11T08:59:46.481Z,45
2018-01-11T09:00:18.501Z,45
2018-01-11T09:00:50.505Z,45
2018-01-11T09:01:22.516Z,45
2018-01-11T09:01:54.683Z,45
2018-01-11T09:02:26.757Z,45
2018-01-11T09:02:58.788Z,45
2018-01-11T09:03:30.763Z,45
2018-01-11T09:04:02.804Z,45
2018-01-11T09:04:34.754Z,45
2018-01-11T09:05:06.838Z,50
2018-01-11T09:05:38.898Z,50
2018-01-11T09:06:10.922Z,50
2018-01-11T09:06:42.954Z,50
2018-01-11T09:07:14.992Z,45
2018-01-11T09:07:47.116Z,45
2018-01-11T09:08:19.098Z,45
2018-01-11T09:08:51.117Z,45
2018-01-11T09:09:23.097Z,45
2018-01-11T09:09:55.142Z,45
2018-01-11T09:10:27.132Z,45
2018-01-11T09:10:59.246Z,50
2018-01-11T09:11:31.280Z,50
2018-01-11T09:12:03.273Z,50
2018-01-11T09:12:35.308Z,50
2018-01-11T09:13:07.404Z,50
2018-01-11T09:13:39.415Z,50
2018-01-11T09:14:11.462Z,50
2018-01-11T09:14:43.515Z,55
2018-01-11T09:15:15.600Z,55
2018-01-11T09:15:47.707Z,55
2018-01-11T09:16:19.765Z,55
2018-01-11T09:16:51.760Z,55
2018-01-11T09:17:23.785Z,55
2018-01-11T09:17:55.808Z,55
2018-01-11T09:18:27.834Z,55
2018-01-11T09:18:59.888Z,60
2018-01-11T09:19:31.894Z,60
2018-01-11T09:20:03.955Z,60
2018-01-11T09:20:36.002Z,60
2018-01-11T09:21:08.016Z,60
2018-01-11T09:21:40.196Z,60
2018-01-11T09:22:12.266Z,60
2018-01-11T09:22:44.315Z,60
2018-01-11T09:23:16.357Z,60
2018-01-11T09:23:48.482Z,60
2018-01-11T09:24:20.526Z,60
2018-01-11T09:24:52.525Z,60
2018-01-11T09:25:24.528Z,65
2018-01-11T09:25:56.616Z,65
2018-01-11T09:26:28.633Z,65
2018-01-11T09:27:00.707Z,65
2018-01-11T09:27:32.813Z,65
2018-01-11T09:28:04.880Z,65
2018-01-11T09:28:36.975Z,65
2018-01-11T09:29:09.054Z,65
2018-01-11T09:29:41.070Z,65
2018-01-11T09:30:13.134Z,65
2018-01-11T09:30:45.449Z,65
2018-01-11T09:31:17.532Z,65
2018-01-11T09:31:49.634Z,65
2018-01-11T09:32:21.652Z,65
2018-01-11T09:32:53.746Z,65
2018-01-11T09:33:25.763Z,65
2018-01-11T09:33:57.848Z,70
2018-01-11T09:34:29.933Z,70
2018-01-11T09:35:01.924Z,70
2018-01-11T09:35:34.032Z,70
2018-01-11T09:36:06.017Z,70
2018-01-11T09:36:38.029Z,70
2018-01-11T09:37:10.032Z,70
2018-01-11T09:37:42.088Z,70
2018-01-11T09:38:14.118Z,70
2018-01-11T09:38:46.254Z,75
2018-01-11T09:39:18.305Z,75
2018-01-11T09:39:50.300Z,75
2018-01-11T09:40:22.347Z,75
2018-01-11T09:40:54.414Z,75
2018-01-11T09:41:26.393Z,75
2018-01-11T09:41:58.507Z,75
2018-01-11T09:42:30.595Z,75
2018-01-11T09:43:02.591Z,75
2018-01-11T09:43:34.608Z,75
2018-01-11T09:44:06.618Z,75
2018-01-11T09:44:38.679Z,75
2018-01-11T09:45:10.737Z,75
2018-01-11T09:45:42.773Z,75
2018-01-11T09:46:14.805Z,75
2018-01-11T09:46:46.879Z,75
2018-01-11T09:47:19.058Z,80
2018-01-11T09:47:51.066Z,80
2018-01-11T09:48:23.080Z,80
2018-01-11T09:48:55.122Z,80
2018-01-11T09:49:27.207Z,80
2018-01-11T09:49:59.190Z,80
2018-01-11T09:50:31.230Z,80
2018-01-11T09:51:03.200Z,80
2018-01-11T09:51:35.264Z,80
2018-01-11T09:52:07.273Z,80
2018-01-11T09:52:39.423Z,80
2018-01-11T09:53:11.945Z,80
2018-01-11T09:53:44.554Z,80
2018-01-11T09:54:16.562Z,80
2018-01-11T09:54:48.707Z,80
2018-01-11T09:55:20.813Z,80
2018-01-11T09:55:55.034Z,80
2018-01-11T09:56:27.258Z,85
2018-01-11T09:56:59.399Z,85
2018-01-11T09:57:31.412Z,85
2018-01-11T09:58:04.058Z,85
2018-01-11T09:58:36.112Z,85
2018-01-11T09:59:08.111Z,85
2018-01-11T09:59:40.074Z,85
2018-01-11T10:00:12.095Z,85
2018-01-11T10:00:44.142Z,85
2018-01-11T10:01:16.209Z,85
2018-01-11T10:01:48.260Z,85
2018-01-11T10:02:20.341Z,85
2018-01-11T10:02:52.318Z,85
2018-01-11T10:03:24.318Z,90
2018-01-11T10:03:56.344Z,90
2018-01-11T10:04:28.373Z,90
2018-01-11T10:05:00.437Z,90
2018-01-11T10:05:32.467Z,90
2018-01-11T10:06:04.528Z,90
2018-01-11T10:06:36.527Z,90
2018-01-11T10:07:08.558Z,90
2018-01-11T10:07:40.611Z,90
2018-01-11T10:08:12.588Z,90
2018-01-11T10:08:44.688Z,90
2018-01-11T10:09:16.686Z,90
2018-01-11T10:09:48.712Z,90
2018-01-11T10:10:20.724Z,90
2018-01-11T10:10:52.771Z,90
2018-01-11T10:11:24.774Z,95
2018-01-11T10:11:56.756Z,95
2018-01-11T10:12:29.795Z,95
2018-01-11T10:13:01.849Z,95
2018-01-11T10:13:33.922Z,95
2018-01-11T10:14:05.970Z,95
2018-01-11T10:14:37.999Z,100
2018-01-11T10:15:10.009Z,100
2018-01-11T10:15:42.484Z,100
2018-01-11T10:16:14.506Z,100
2018-01-11T10:16:46.542Z,100
2018-01-11T10:17:18.565Z,100
2018-01-11T10:17:50.623Z,100
2018-01-11T10:18:22.650Z,100
2018-01-11T10:18:54.675Z,100
2018-01-11T10:19:26.849Z,100
2018-01-11T10:19:58.831Z,100
2018-01-11T10:20:30.831Z,100
2018-01-11T10:21:02.852Z,100
2018-01-11T10:21:34.896Z,100
2018-01-11T10:22:07.176Z,100
2018-01-11T10:22:39.185Z,105
2018-01-11T10:23:11.166Z,105
2018-01-11T10:23:43.197Z,105
2018-01-11T10:24:15.207Z,105
2018-01-11T10:24:47.242Z,105
2018-01-11T10:25:19.760Z,105
2018-01-11T10:25:51.780Z,105
2018-01-11T10:26:23.777Z,105
2018-01-11T10:26:55.819Z,105
2018-01-11T10:27:27.845Z,105
2018-01-11T10:27:59.899Z,105
2018-01-11T10:28:31.911Z,105
2018-01-11T10:29:03.924Z,105
2018-01-11T10:29:35.908Z,105
2018-01-11T10:30:07.952Z,105
2018-01-11T10:30:40.039Z,105
2018-01-11T10:31:12.070Z,105
2018-01-11T10:31:44.100Z,105
2018-01-11T10:32:16.096Z,105
2018-01-11T10:32:48.072Z,105
2018-01-11T10:33:20.109Z,105
2018-01-11T10:33:52.118Z,105
2018-01-11T10:34:24.124Z,105
2018-01-11T10:34:56.129Z,105
2018-01-11T10:35:28.139Z,105
2018-01-11T10:36:00.260Z,105
2018-01-11T10:36:32.567Z,110
2018-01-11T10:37:04.544Z,110
2018-01-11T10:37:36.517Z,110
2018-01-11T10:38:08.509Z,110
2018-01-11T10:38:40.597Z,110
2018-01-11T10:39:12.598Z,110
2018-01-11T10:39:44.624Z,110
2018-01-11T10:40:16.595Z,110
2018-01-11T10:40:48.589Z,110
2018-01-11T10:41:20.639Z,110
2018-01-11T10:41:53.374Z,110
2018-01-11T10:42:25.405Z,110
2018-01-11T10:42:57.396Z,110
2018-01-11T10:43:29.403Z,110
2018-01-11T10:44:01.432Z,110
2018-01-11T10:44:33.545Z,110
2018-01-11T10:45:05.571Z,110
2018-01-11T10:45:37.635Z,110
2018-01-11T10:46:10.207Z,110
2018-01-11T10:46:42.230Z,110
2018-01-11T10:47:14.977Z,110
2018-01-11T10:47:46.935Z,110
2018-01-11T10:48:18.942Z,110
2018-01-11T10:48:50.901Z,105
2018-01-11T10:49:22.939Z,105
2018-01-11T10:49:54.942Z,105
2018-01-11T10:50:26.926Z,105
2018-01-11T10:50:58.953Z,105
2018-01-11T10:51:30.946Z,110
2018-01-11T10:52:02.997Z,115
2018-01-11T10:52:35.080Z,115
2018-01-11T10:53:07.235Z,115
2018-01-11T10:53:39.265Z,115
2018-01-11T10:54:11.264Z,115
2018-01-11T10:54:43.311Z,120
2018-01-11T10:55:15.430Z,120
2018-01-11T10:55:47.575Z,120
2018-01-11T10:56:19.689Z,120
2018-01-11T10:56:51.781Z,120
2018-01-11T10:57:23.816Z,120
2018-01-11T10:57:55.952Z,120
2018-01-11T10:58:27.930Z,115
2018-01-11T10:59:00.096Z,115
2018-01-11T10:59:32.222Z,115
2018-01-11T11:00:04.169Z,120
2018-01-11T11:00:36.512Z,125
2018-01-11T11:01:08.502Z,130
2018-01-11T11:01:40.500Z,135
2018-01-11T11:02:12.530Z,115
2018-01-11T11:02:44.580Z,105
2018-01-11T11:03:16.589Z,105
2018-01-11T11:03:48.588Z,100
2018-01-11T11:04:20.705Z,100
2018-01-11T11:04:52.759Z,110
2018-01-11T11:05:24.778Z,110
2018-01-11T11:05:56.816Z,115
2018-01-11T11:06:28.867Z,110
2018-01-11T11:07:01.023Z,100
2018-01-11T11:07:33.058Z,100
2018-01-11T11:08:05.131Z,105
2018-01-11T11:08:37.103Z,100
2018-01-11T11:09:09.120Z,100
2018-01-11T11:09:41.153Z,95
2018-01-11T11:10:13.153Z,95
2018-01-11T11:10:45.120Z,95
2018-01-11T11:11:17.106Z,90
2018-01-11T11:11:49.156Z,90
2018-01-11T11:12:21.250Z,90
2018-01-11T11:12:53.273Z,90
2018-01-11T11:13:25.274Z,90
2018-01-11T11:13:57.279Z,90
2018-01-11T11:14:29.296Z,85
2018-01-11T11:15:01.289Z,85
2018-01-11T11:15:33.285Z,85
2018-01-11T11:16:05.312Z,85
2018-01-11T11:16:37.463Z,85
2018-01-11T11:17:09.467Z,90
2018-01-11T11:17:41.600Z,90
2018-01-11T11:18:13.625Z,90
2018-01-11T11:18:47.305Z,90
2018-01-11T11:19:19.313Z,95
2018-01-11T11:19:51.336Z,95
2018-01-11T11:20:23.332Z,95
2018-01-11T11:20:55.322Z,95
2018-01-11T11:21:27.355Z,100
2018-01-11T11:21:59.346Z,100
2018-01-11T11:22:31.471Z,100
2018-01-11T11:23:03.469Z,100
2018-01-11T11:23:35.571Z,100
2018-01-11T11:24:07.587Z,100
2018-01-11T11:24:39.642Z,100
2018-01-11T11:25:11.637Z,95
2018-01-11T11:25:43.715Z,95
2018-01-11T11:26:15.676Z,95
2018-01-11T11:26:47.812Z,95
2018-01-11T11:27:19.902Z,95
2018-01-11T11:27:51.941Z,95
2018-01-11T11:28:23.967Z,100
2018-01-11T11:28:55.996Z,100
2018-01-11T11:29:28.011Z,105
2018-01-11T11:30:00.055Z,105
2018-01-11T11:30:32.086Z,110
2018-01-11T11:31:04.095Z,115
2018-01-11T11:31:36.066Z,135
2018-01-11T11:32:08.060Z,150
2018-01-11T11:32:40.112Z,140
2018-01-11T11:33:12.144Z,125
2018-01-11T11:33:44.232Z,125
2018-01-11T11:34:16.291Z,125
2018-01-11T11:34:48.383Z,120
2018-01-11T11:35:20.382Z,130
2018-01-11T11:35:52.505Z,120
2018-01-11T11:36:24.533Z,125
2018-01-11T11:36:56.538Z,120
2018-01-11T11:37:29.441Z,120
2018-01-11T11:38:01.406Z,120
2018-01-11T11:38:33.485Z,120
2018-01-11T11:39:05.500Z,125
2018-01-11T11:39:37.534Z,155
2018-01-11T11:40:09.579Z,170
2018-01-11T11:40:41.622Z,170
2018-01-11T11:41:13.674Z,155
2018-01-11T11:41:45.675Z,130
2018-01-11T11:42:17.757Z,125
2018-01-11T11:42:49.790Z,125
2018-01-11T11:43:21.749Z,120
2018-01-11T11:43:54.718Z,120
2018-01-11T11:44:26.768Z,120
2018-01-11T11:44:58.844Z,120
2018-01-11T11:45:30.840Z,115
2018-01-11T11:46:02.904Z,115
2018-01-11T11:46:34.952Z,115
2018-01-11T11:47:07.083Z,115
2018-01-11T11:47:39.091Z,115
2018-01-11T11:48:11.099Z,115
2018-01-11T11:48:43.142Z,120
2018-01-11T11:49:15.217Z,125
2018-01-11T11:49:47.204Z,125
2018-01-11T11:50:19.226Z,130
2018-01-11T11:50:51.271Z,135
2018-01-11T11:51:23.300Z,135
2018-01-11T11:51:55.313Z,130
2018-01-11T11:52:27.374Z,135
2018-01-11T11:52:59.370Z,135
2018-01-11T11:53:31.394Z,165
2018-01-11T11:54:03.427Z,180
2018-01-11T11:54:35.400Z,185
2018-01-11T11:55:07.403Z,175
2018-01-11T11:55:39.396Z,210
2018-01-11T11:56:11.382Z,165
2018-01-11T11:56:43.534Z,175
2018-01-11T11:57:15.516Z,200
2018-01-11T11:57:47.670Z,165
2018-01-11T11:58:19.776Z,175
2018-01-11T11:58:51.783Z,175
2018-01-11T11:59:23.746Z,165
2018-01-11T11:59:55.763Z,180
2018-01-11T12:00:27.745Z,180
2018-01-11T12:00:59.838Z,205
2018-01-11T12:01:32.004Z,185
2018-01-11T12:02:04.101Z,175
2018-01-11T12:02:36.106Z,180
2018-01-11T12:03:08.077Z,185
2018-01-11T12:03:40.517Z,195
2018-01-11T12:04:12.501Z,200
2018-01-11T12:04:44.559Z,200
2018-01-11T12:05:16.594Z,200
2018-01-11T12:05:48.628Z,205
2018-01-11T12:06:20.557Z,200
2018-01-11T12:06:53.455Z,210
2018-01-11T12:07:25.467Z,220
2018-01-11T12:07:57.527Z,225
2018-01-11T12:08:29.576Z,220
2018-01-11T12:09:01.633Z,185
2018-01-11T12:09:33.710Z,200
2018-01-11T12:10:05.678Z,180
2018-01-11T12:10:37.721Z,180
2018-01-11T12:11:09.823Z,205
2018-01-11T12:11:42.557Z,220
2018-01-11T12:12:14.604Z,245
2018-01-11T12:12:46.617Z,245
2018-01-11T12:13:18.615Z,250
2018-01-11T12:13:50.670Z,225
2018-01-11T12:14:22.655Z,225
2018-01-11T12:14:54.702Z,200
2018-01-11T12:15:26.712Z,205
2018-01-11T12:15:58.691Z,180
2018-01-11T12:16:30.718Z,170
2018-01-11T12:17:02.712Z,170
2018-01-11T12:17:34.699Z,165
2018-01-11T12:18:06.731Z,165
2018-01-11T12:18:38.811Z,170
2018-01-11T12:19:10.943Z,170
2018-01-11T12:19:42.919Z,180
2018-01-11T12:20:14.963Z,170
2018-01-11T12:20:46.989Z,165
2018-01-11T12:21:19.092Z,230
2018-01-11T12:21:51.190Z,230
2018-01-11T12:22:23.225Z,200
2018-01-11T12:22:55.300Z,165
2018-01-11T12:23:27.308Z,155
2018-01-11T12:23:59.292Z,135
2018-01-11T12:24:31.281Z,125
2018-01-11T12:25:03.287Z,120
2018-01-11T12:25:35.322Z,110
2018-01-11T12:26:07.329Z,105
2018-01-11T12:26:39.311Z,105
2018-01-11T12:27:11.326Z,105
2018-01-11T12:27:43.306Z,110
2018-01-11T12:28:15.350Z,120
2018-01-11T12:28:47.387Z,130
2018-01-11T12:29:19.423Z,155
2018-01-11T12:29:51.544Z,185
2018-01-11T12:30:23.549Z,180
2018-01-11T12:30:55.529Z,195
2018-01-11T12:31:27.560Z,335
2018-01-11T12:31:59.555Z,500
2018-01-11T12:32:31.541Z,435
2018-01-11T12:33:03.590Z,385
2018-01-11T12:33:35.574Z,345
2018-01-11T12:34:07.614Z,360
2018-01-11T12:34:39.643Z,390
2018-01-11T12:35:11.809Z,515
2018-01-11T12:35:43.804Z,600
2018-01-11T12:36:15.849Z,545
2018-01-11T12:36:48.408Z,495
2018-01-11T12:37:20.395Z,440
2018-01-11T12:37:52.457Z,585
2018-01-11T12:38:24.446Z,620
2018-01-11T12:38:56.594Z,665
2018-01-11T12:39:28.524Z,695
2018-01-11T12:40:00.548Z,695
2018-01-11T12:40:32.507Z,695
2018-01-11T12:41:04.563Z,705
2018-01-11T12:41:36.543Z,710
2018-01-11T12:42:08.505Z,725
2018-01-11T12:42:40.467Z,740
2018-01-11T12:43:12.510Z,750
2018-01-11T12:43:44.578Z,745
2018-01-11T12:44:16.582Z,720
2018-01-11T12:44:48.577Z,680
2018-01-11T12:45:20.581Z,635
2018-01-11T12:45:52.576Z,615
2018-01-11T12:46:24.621Z,590
2018-01-11T12:46:56.770Z,590
2018-01-11T12:47:28.764Z,580
2018-01-11T12:48:00.896Z,540
2018-01-11T12:48:32.937Z,515
2018-01-11T12:49:04.938Z,485
2018-01-11T12:49:36.898Z,485
2018-01-11T12:50:09.474Z,480
2018-01-11T12:50:41.484Z,485
2018-01-11T12:51:13.478Z,525
2018-01-11T12:51:45.713Z,535
2018-01-11T12:52:17.850Z,560
2018-01-11T12:52:49.828Z,590
2018-01-11T12:53:21.852Z,620
2018-01-11T12:53:53.857Z,685
2018-01-11T12:54:25.912Z,715
2018-01-11T12:54:57.950Z,750
2018-01-11T12:55:29.978Z,760
2018-01-11T12:56:02.673Z,760
2018-01-11T12:56:34.702Z,750
2018-01-11T12:57:06.713Z,750
2018-01-11T12:57:38.700Z,755
2018-01-11T12:58:10.754Z,755
2018-01-11T12:58:42.906Z,755
2018-01-11T12:59:14.916Z,755
2018-01-11T12:59:46.910Z,750
2018-01-11T13:00:18.926Z,755
2018-01-11T13:00:50.935Z,760
2018-01-11T13:01:22.961Z,765
2018-01-11T13:01:55.054Z,765
2018-01-11T13:02:27.051Z,760
2018-01-11T13:02:59.061Z,755
2018-01-11T13:03:31.047Z,740
2018-01-11T13:04:03.170Z,720
2018-01-11T13:04:35.178Z,700
2018-01-11T13:05:07.147Z,700
2018-01-11T13:05:39.194Z,685
2018-01-11T13:06:11.180Z,660
2018-01-11T13:06:43.250Z,610
2018-01-11T13:07:15.239Z,570
2018-01-11T13:07:47.297Z,510
2018-01-11T13:08:19.285Z,485
2018-01-11T13:08:51.280Z,465
2018-01-11T13:09:23.298Z,495
2018-01-11T13:09:55.268Z,515
2018-01-11T13:10:27.270Z,520
2018-01-11T13:10:59.238Z,500
2018-01-11T13:11:31.330Z,455
2018-01-11T13:12:03.357Z,420
2018-01-11T13:12:35.490Z,415
2018-01-11T13:13:07.485Z,415
2018-01-11T13:13:39.512Z,425
2018-01-11T13:14:11.502Z,405
2018-01-11T13:14:43.494Z,370
2018-01-11T13:15:15.568Z,330
2018-01-11T13:15:47.595Z,315
2018-01-11T13:16:19.630Z,305
2018-01-11T13:16:51.624Z,330
2018-01-11T13:17:23.608Z,355
2018-01-11T13:17:55.614Z,380
2018-01-11T13:18:27.721Z,395
2018-01-11T13:18:59.763Z,405
2018-01-11T13:19:31.803Z,420
2018-01-11T13:20:03.774Z,445
2018-01-11T13:20:35.796Z,460
2018-01-11T13:21:07.834Z,465
2018-01-11T13:21:39.892Z,465
2018-01-11T13:22:11.975Z,450
2018-01-11T13:22:44.008Z,430
2018-01-11T13:23:16.028Z,445
2018-01-11T13:23:48.033Z,470
2018-01-11T13:24:20.136Z,520
2018-01-11T13:24:52.158Z,565
2018-01-11T13:25:24.181Z,585
2018-01-11T13:25:56.198Z,610
2018-01-11T13:26:28.356Z,640
2018-01-11T13:27:00.517Z,680
2018-01-11T13:27:32.627Z,695
2018-01-11T13:28:04.661Z,695
2018-01-11T13:28:36.689Z,685
2018-01-11T13:29:08.697Z,670
2018-01-11T13:29:40.657Z,625
2018-01-11T13:30:12.653Z,560
2018-01-11T13:30:44.675Z,525
2018-01-11T13:31:16.740Z,510
2018-01-11T13:31:48.765Z,565
2018-01-11T13:32:20.767Z,615
2018-01-11T13:32:52.805Z,630
2018-01-11T13:33:24.842Z,580
2018-01-11T13:33:56.881Z,405
2018-01-11T13:34:28.903Z,550
2018-01-11T13:35:00.940Z,570
2018-01-11T13:35:32.964Z,565
2018-01-11T13:36:04.943Z,575
2018-01-11T13:36:36.905Z,580
2018-01-11T13:37:08.872Z,585
2018-01-11T13:37:40.861Z,590
2018-01-11T13:38:12.878Z,590
2018-01-11T13:38:44.889Z,595
2018-01-11T13:39:16.984Z,590
2018-01-11T13:39:48.973Z,580
2018-01-11T13:40:21.076Z,565
2018-01-11T13:40:53.220Z,550
2018-01-11T13:41:25.261Z,535
2018-01-11T13:41:57.332Z,545
2018-01-11T13:42:29.372Z,560
2018-01-11T13:43:01.348Z,505
2018-01-11T13:43:33.387Z,390
2018-01-11T13:44:05.390Z,380
2018-01-11T13:44:37.395Z,445
2018-01-11T13:45:09.447Z,455
2018-01-11T13:45:41.446Z,460
2018-01-11T13:46:13.459Z,530
2018-01-11T13:46:45.459Z,485
2018-01-11T13:47:17.488Z,490
2018-01-11T13:47:49.519Z,525
2018-01-11T13:48:21.684Z,530
2018-01-11T13:48:53.642Z,530
2018-01-11T13:49:25.696Z,460
2018-01-11T13:49:58.329Z,350
2018-01-11T13:50:30.374Z,355
2018-01-11T13:51:02.400Z,340
2018-01-11T13:51:34.508Z,230
2018-01-11T13:52:06.516Z,205
2018-01-11T13:52:38.585Z,170
2018-01-11T13:53:10.610Z,255
2018-01-11T13:53:42.648Z,340
2018-01-11T13:54:14.615Z,335
2018-01-11T13:54:47.491Z,310
2018-01-11T13:55:19.438Z,345
2018-01-11T13:55:51.428Z,380
2018-01-11T13:56:23.460Z,375
2018-01-11T13:56:55.455Z,335
2018-01-11T13:57:27.521Z,250
2018-01-11T13:57:59.576Z,140
2018-01-11T13:58:31.551Z,135
2018-01-11T13:59:03.541Z,140
2018-01-11T13:59:35.607Z,145
2018-01-11T14:00:07.583Z,150
2018-01-11T14:00:39.674Z,180
2018-01-11T14:01:11.688Z,225
2018-01-11T14:01:43.718Z,265
2018-01-11T14:02:15.687Z,270
2018-01-11T14:02:47.712Z,255
2018-01-11T14:03:19.706Z,235
2018-01-11T14:03:51.741Z,215
2018-01-11T14:04:23.723Z,170
2018-01-11T14:04:56.628Z,175
2018-01-11T14:05:28.655Z,165
2018-01-11T14:06:00.756Z,175
2018-01-11T14:06:32.833Z,155
2018-01-11T14:07:04.762Z,185
2018-01-11T14:07:36.773Z,215
2018-01-11T14:08:08.853Z,215
2018-01-11T14:08:40.956Z,225
2018-01-11T14:09:13.017Z,240
2018-01-11T14:09:45.075Z,230
2018-01-11T14:10:17.107Z,240
2018-01-11T14:10:49.238Z,250
2018-01-11T14:11:21.293Z,250
2018-01-11T14:11:53.309Z,255
2018-01-11T14:12:25.433Z,240
2018-01-11T14:12:57.484Z,245
2018-01-11T14:13:29.505Z,260
2018-01-11T14:14:01.663Z,265
2018-01-11T14:14:33.835Z,270
2018-01-11T14:15:05.977Z,290
2018-01-11T14:15:37.979Z,300
2018-01-11T14:16:09.998Z,310
2018-01-11T14:16:42.101Z,295
2018-01-11T14:17:14.169Z,255
2018-01-11T14:17:46.185Z,170
2018-01-11T14:18:18.228Z,130
2018-01-11T14:18:50.276Z,120
2018-01-11T14:19:22.419Z,110
2018-01-11T14:19:54.557Z,110
2018-01-11T14:20:26.548Z,120
2018-01-11T14:20:58.563Z,150
2018-01-11T14:21:30.763Z,165
2018-01-11T14:22:02.838Z,180
2018-01-11T14:22:34.859Z,180
2018-01-11T14:23:07.036Z,165
2018-01-11T14:23:39.042Z,155
2018-01-11T14:24:11.106Z,150
2018-01-11T14:24:43.176Z,170
2018-01-11T14:25:15.329Z,180
2018-01-11T14:25:47.487Z,185
2018-01-11T14:26:19.521Z,200
2018-01-11T14:26:51.537Z,185
2018-01-11T14:27:23.587Z,160
2018-01-11T14:27:55.602Z,145
2018-01-11T14:28:27.611Z,145
2018-01-11T14:28:59.695Z,145
2018-01-11T14:29:31.802Z,140
2018-01-11T14:30:04.029Z,135
2018-01-11T14:30:36.101Z,125
2018-01-11T14:31:08.107Z,120
2018-01-11T14:31:40.181Z,125
2018-01-11T14:32:12.225Z,125
2018-01-11T14:32:44.271Z,120
2018-01-11T14:33:16.333Z,115
2018-01-11T14:33:48.506Z,110
2018-01-11T14:34:20.503Z,105
2018-01-11T14:34:52.562Z,95
2018-01-11T14:35:24.767Z,85
2018-01-11T14:35:56.844Z,80
2018-01-11T14:36:28.899Z,75
2018-01-11T14:37:01.006Z,65
2018-01-11T14:37:33.116Z,55
2018-01-11T14:38:05.941Z,45
2018-01-11T14:38:42.186Z,45
2018-01-11T14:39:14.165Z,40
2018-01-11T14:39:47.059Z,40
2018-01-11T14:40:19.105Z,40
2018-01-11T14:40:51.126Z,40
2018-01-11T14:41:23.177Z,40
2018-01-11T14:41:55.208Z,40
2018-01-11T14:42:27.226Z,40
2018-01-11T14:42:59.316Z,40
2018-01-11T14:43:31.348Z,40
2018-01-11T14:44:03.378Z,40
2018-01-11T14:44:35.429Z,40
2018-01-11T14:45:07.456Z,40
2018-01-11T14:45:39.428Z,40
2018-01-11T14:46:11.461Z,35
2018-01-11T14:46:43.461Z,35
2018-01-11T14:47:15.476Z,35
2018-01-11T14:47:47.492Z,35
2018-01-11T14:48:19.510Z,35
2018-01-11T14:48:51.529Z,35
2018-01-11T14:49:23.520Z,35
2018-01-11T14:49:55.508Z,35
2018-01-11T14:50:27.514Z,30
2018-01-11T14:50:59.539Z,30
2018-01-11T14:51:31.580Z,30
2018-01-11T14:52:03.627Z,30
2018-01-11T14:52:35.713Z,30
2018-01-11T14:53:07.885Z,30
2018-01-11T14:53:39.912Z,25
2018-01-11T14:54:11.941Z,25
2018-01-11T14:54:43.985Z,25
2018-01-11T14:55:16.005Z,25
2018-01-11T14:55:48.024Z,20
2018-01-11T14:56:19.992Z,20
2018-01-11T14:56:52.013Z,20
2018-01-11T14:57:23.989Z,20
2018-01-11T14:57:56.019Z,15
2018-01-11T14:58:28.134Z,15
2018-01-11T14:59:00.125Z,15
2018-01-11T14:59:32.131Z,15
2018-01-11T15:00:04.190Z,15
2018-01-11T15:00:36.259Z,15
2018-01-11T15:01:15.955Z,15
2018-01-11T15:01:48.136Z,10
2018-01-11T15:02:20.236Z,10
2018-01-11T15:02:52.739Z,10
2018-01-11T15:03:24.795Z,10
2018-01-11T15:03:56.807Z,10
2018-01-11T15:04:28.808Z,10
2018-01-11T15:05:00.846Z,10
2018-01-11T15:05:32.855Z,10
2018-01-11T15:06:04.840Z,10
2018-01-11T15:06:36.894Z,10
2018-01-11T15:07:08.886Z,10
2018-01-11T15:07:41.010Z,5
2018-01-11T15:08:13.056Z,5
2018-01-11T15:08:45.051Z,5
2018-01-11T15:09:17.022Z,5
2018-01-11T15:09:49.182Z,5
2018-01-11T15:10:21.174Z,5
2018-01-11T15:10:53.180Z,5
2018-01-11T15:11:25.163Z,5
2018-01-11T15:11:57.244Z,5
2018-01-11T15:12:29.243Z,5
2018-01-11T15:13:01.328Z,5
2018-01-11T15:13:33.435Z,5
2018-01-11T15:14:05.428Z,5
2018-01-11T15:14:37.448Z,5
2018-01-11T15:15:09.486Z,5
2018-01-11T15:15:41.671Z,5
2018-01-11T15:16:13.791Z,5
2018-01-11T15:16:45.810Z,5
2018-01-11T15:17:17.814Z,5
2018-01-11T15:17:49.792Z,5
2018-01-11T15:18:21.832Z,5
2018-01-11T15:18:53.818Z,5
2018-01-11T15:19:25.848Z,5
2018-01-11T15:19:57.873Z,5
2018-01-11T15:20:29.889Z,5
2018-01-11T15:21:01.997Z,5
2018-01-11T15:21:33.971Z,5
2018-01-11T15:22:06.040Z,5
2018-01-11T15:22:38.046Z,5
2018-01-11T15:23:10.089Z,5
2018-01-11T15:23:42.677Z,5
2018-01-11T15:24:14.643Z,5
2018-01-11T15:24:46.620Z,5
2018-01-11T15:25:18.637Z,5
2018-01-11T15:25:50.633Z,5
2018-01-11T15:26:22.677Z,5
2018-01-11T15:26:54.691Z,5
2018-01-11T15:27:26.677Z,5
2018-01-11T15:27:58.672Z,5
2018-01-11T15:28:30.689Z,5
2018-01-11T15:29:02.702Z,5
2018-01-11T15:29:34.703Z,5
2018-01-11T15:30:06.816Z,5
2018-01-11T15:30:38.816Z,0
2018-01-11T15:31:10.801Z,0
2018-01-11T15:31:42.819Z,0
2018-01-11T15:32:14.803Z,0
2018-01-11T15:32:46.815Z,0
2018-01-11T15:33:18.824Z,0